createdAt,value
2024-03-12T00:01:37.331Z,0.50
2024-03-12T00:04:09.494Z,0.37
2024-03-12T00:06:39.980Z,0.30
2024-03-12T00:09:11.208Z,0.30
2024-03-12T00:11:44.212Z,0.40
2024-03-12T00:14:15.734Z,0.40
2024-03-12T00:16:46.437Z,0.50
2024-03-12T00:19:18.615Z,0.40
2024-03-12T00:21:49.220Z,0.40
2024-03-12T00:24:19.573Z,0.40
2024-03-12T00:26:53.659Z,0.30
2024-03-12T00:29:24.832Z,0.40
2024-03-12T00:31:56.552Z,0.40
2024-03-12T00:34:26.977Z,0.60
2024-03-12T00:36:57.955Z,0.40
2024-03-12T00:39:28.306Z,0.50
2024-03-12T00:42:01.141Z,0.50
2024-03-12T00:44:31.799Z,0.50
2024-03-12T00:47:02.942Z,0.40
2024-03-12T00:49:33.858Z,0.90
2024-03-12T00:52:05.201Z,0.97
2024-03-12T00:54:37.651Z,0.80
2024-03-12T00:57:10.875Z,1.00
2024-03-12T00:59:42.406Z,1.47
2024-03-12T01:02:14.158Z,1.30
2024-03-12T01:04:44.407Z,1.30
2024-03-12T01:07:20.571Z,1.60
2024-03-12T01:09:50.791Z,1.10
2024-03-12T01:12:23.707Z,1.00
2024-03-12T01:14:53.953Z,1.27
2024-03-12T01:17:24.734Z,1.40
2024-03-12T01:19:55.528Z,1.10
2024-03-12T01:22:26.406Z,1.30
2024-03-12T01:24:56.681Z,1.20
2024-03-12T01:27:30.950Z,0.87
2024-03-12T01:30:01.498Z,1.30
2024-03-12T01:32:32.265Z,1.10
2024-03-12T01:35:05.055Z,1.20
2024-03-12T01:37:35.709Z,0.80
2024-03-12T01:40:21.004Z,0.70
2024-03-12T01:42:58.199Z,0.70
2024-03-12T01:45:29.359Z,0.90
2024-03-12T01:48:00.976Z,0.70
2024-03-12T01:50:33.016Z,0.90
2024-03-12T01:53:07.549Z,0.43
2024-03-12T01:55:39.692Z,0.40
2024-03-12T01:58:12.915Z,0.40
2024-03-12T02:00:45.772Z,0.80
2024-03-12T02:03:20.502Z,0.90
2024-03-12T02:05:51.100Z,0.70
2024-03-12T02:08:22.359Z,0.80
2024-03-12T02:10:53.390Z,0.60
2024-03-12T02:13:27.150Z,0.60
2024-03-12T02:15:57.747Z,0.50
2024-03-12T02:18:28.184Z,0.80
2024-03-12T02:20:58.451Z,0.57
2024-03-12T02:23:39.007Z,0.70
2024-03-12T02:26:10.905Z,0.50
2024-03-12T02:28:41.197Z,0.40
2024-03-12T02:31:12.286Z,0.37
2024-03-12T02:33:42.782Z,0.40
2024-03-12T02:36:14.299Z,0.30
2024-03-12T02:38:47.193Z,0.40
2024-03-12T02:41:17.444Z,0.30
2024-03-12T02:43:48.141Z,0.40
2024-03-12T02:46:18.859Z,0.40
2024-03-12T02:48:49.227Z,0.33
2024-03-12T02:51:19.451Z,0.40
2024-03-12T02:53:52.265Z,0.40
2024-03-12T02:56:22.564Z,0.40
2024-03-12T02:58:52.821Z,0.30
2024-03-12T03:01:23.452Z,0.67
2024-03-12T03:03:53.791Z,0.37
2024-03-12T03:06:24.968Z,0.33
2024-03-12T03:09:00.052Z,0.40
2024-03-12T03:11:30.632Z,0.40
2024-03-12T03:14:01.447Z,0.30
2024-03-12T03:16:33.060Z,0.40
2024-03-12T03:19:03.496Z,0.30
2024-03-12T03:21:33.815Z,0.30
2024-03-12T03:24:06.931Z,0.37
2024-03-12T03:26:37.214Z,0.50
2024-03-12T03:29:07.488Z,0.30
2024-03-12T03:31:37.674Z,0.40
2024-03-12T03:34:08.353Z,0.40
2024-03-12T03:36:41.097Z,0.30
2024-03-12T03:39:14.002Z,0.40
2024-03-12T03:41:44.286Z,0.30
2024-03-12T03:44:14.579Z,0.30
2024-03-12T03:46:44.975Z,0.30
2024-03-12T03:49:15.546Z,0.30
2024-03-12T03:51:45.890Z,0.30
2024-03-12T03:54:18.745Z,0.30
2024-03-12T03:56:49.238Z,0.30
2024-03-12T03:59:20.922Z,0.30
2024-03-12T04:01:51.786Z,0.40
2024-03-12T04:04:24.227Z,0.33
2024-03-12T04:06:55.457Z,0.40
2024-03-12T04:09:29.026Z,0.40
2024-03-12T04:11:59.260Z,0.40
2024-03-12T04:14:29.497Z,0.30
2024-03-12T04:16:59.686Z,0.30
2024-03-12T04:19:33.390Z,0.30
2024-03-12T04:22:06.965Z,0.30
2024-03-12T04:24:40.448Z,0.37
2024-03-12T04:27:15.246Z,0.30
2024-03-12T04:29:46.480Z,0.40
2024-03-12T04:32:16.807Z,0.30
2024-03-12T04:34:48.024Z,0.30
2024-03-12T04:37:18.626Z,0.30
2024-03-12T04:39:53.836Z,0.30
2024-03-12T04:42:25.856Z,0.40
2024-03-12T04:44:57.504Z,0.30
2024-03-12T04:47:27.815Z,0.30
2024-03-12T04:49:58.884Z,0.50
2024-03-12T04:52:29.149Z,0.30
2024-03-12T04:55:02.194Z,0.30
2024-03-12T04:57:32.580Z,0.30
2024-03-12T05:00:03.859Z,0.30
2024-03-12T05:02:36.360Z,0.33
2024-03-12T05:05:09.018Z,0.40
2024-03-12T05:07:39.730Z,0.30
2024-03-12T05:10:14.593Z,0.47
2024-03-12T05:12:45.065Z,0.30
2024-03-12T05:15:15.851Z,0.30
2024-03-12T05:17:47.244Z,0.30
2024-03-12T05:20:19.544Z,0.40
2024-03-12T05:22:50.564Z,0.30
2024-03-12T05:25:24.672Z,0.40
2024-03-12T05:27:55.189Z,0.40
2024-03-12T05:30:25.828Z,0.60
2024-03-12T05:32:57.535Z,0.37
2024-03-12T05:35:31.836Z,0.30
2024-03-12T05:38:12.464Z,0.30
2024-03-12T05:40:58.353Z,0.30
2024-03-12T05:43:41.050Z,0.30
2024-03-12T05:46:23.837Z,0.30
2024-03-12T05:48:54.232Z,0.40
2024-03-12T05:51:24.497Z,0.40
2024-03-12T05:53:54.879Z,0.40
2024-03-12T05:56:27.976Z,0.50
2024-03-12T05:58:58.221Z,0.37
2024-03-12T06:01:30.081Z,0.37
2024-03-12T06:04:00.953Z,0.40
2024-03-12T06:06:34.159Z,0.40
2024-03-12T06:09:04.676Z,0.50
2024-03-12T06:11:37.613Z,0.53
2024-03-12T06:14:10.573Z,0.40
2024-03-12T06:16:45.239Z,0.80
2024-03-12T06:19:15.667Z,0.40
2024-03-12T06:21:46.333Z,0.40
2024-03-12T06:24:17.554Z,0.37
2024-03-12T06:26:52.351Z,0.40
2024-03-12T06:29:25.369Z,0.43
2024-03-12T06:31:56.511Z,0.50
2024-03-12T06:34:29.511Z,0.40
2024-03-12T06:37:00.357Z,0.50
2024-03-12T06:39:33.134Z,0.40
2024-03-12T06:42:09.165Z,0.30
2024-03-12T06:44:41.831Z,0.60
2024-03-12T06:47:12.156Z,0.40
2024-03-12T06:49:46.023Z,0.50
2024-03-12T06:52:17.586Z,0.30
2024-03-12T06:54:49.596Z,0.60
2024-03-12T06:57:24.009Z,0.40
2024-03-12T06:59:56.292Z,0.40
2024-03-12T07:02:27.210Z,0.50
2024-03-12T07:04:57.437Z,0.50
2024-03-12T07:07:28.075Z,0.40
2024-03-12T07:10:01.337Z,0.50
2024-03-12T07:12:34.713Z,0.53
2024-03-12T07:15:06.687Z,0.40
2024-03-12T07:17:38.214Z,0.40
2024-03-12T07:20:12.582Z,0.30
2024-03-12T07:22:46.517Z,0.40
2024-03-12T07:25:18.175Z,0.40
2024-03-12T07:27:51.569Z,0.50
2024-03-12T07:30:22.384Z,0.40
2024-03-12T07:32:52.804Z,0.40
2024-03-12T07:35:23.135Z,0.30
2024-03-12T07:37:53.415Z,0.50
2024-03-12T07:40:24.230Z,0.40
2024-03-12T07:42:57.273Z,0.50
2024-03-12T07:45:29.110Z,0.47
2024-03-12T07:47:59.686Z,0.90
2024-03-12T07:50:33.385Z,0.40
2024-03-12T07:53:07.121Z,0.47
2024-03-12T07:55:37.487Z,0.50
2024-03-12T07:58:12.534Z,0.50
2024-03-12T08:00:42.953Z,0.40
2024-03-12T08:03:15.272Z,0.43
2024-03-12T08:05:45.546Z,0.70
2024-03-12T08:08:15.935Z,0.30
2024-03-12T08:10:46.362Z,0.50
2024-03-12T08:13:19.265Z,0.40
2024-03-12T08:15:49.565Z,0.50
2024-03-12T08:18:21.752Z,0.50
2024-03-12T08:20:53.493Z,0.50
2024-03-12T08:23:25.288Z,0.60
2024-03-12T08:25:59.595Z,0.40
2024-03-12T08:28:35.138Z,0.60
2024-03-12T08:31:11.459Z,0.63
2024-03-12T08:33:49.312Z,0.50
2024-03-12T08:36:19.679Z,0.50
2024-03-12T08:38:50.892Z,0.40
2024-03-12T08:41:21.307Z,0.30
2024-03-12T08:43:54.364Z,0.30
2024-03-12T08:46:24.814Z,0.70
2024-03-12T08:48:55.727Z,0.40
2024-03-12T08:51:26.154Z,0.50
2024-03-12T08:53:56.985Z,0.30
2024-03-12T08:56:27.345Z,0.47
2024-03-12T08:59:00.722Z,0.93
2024-03-12T09:01:31.265Z,0.40
2024-03-12T09:04:02.370Z,0.40
2024-03-12T09:06:34.160Z,0.40
2024-03-12T09:09:06.301Z,0.60
2024-03-12T09:11:40.391Z,0.50
2024-03-12T09:14:13.428Z,0.67
2024-03-12T09:16:43.658Z,0.40
2024-03-12T09:19:14.941Z,0.40
2024-03-12T09:21:45.644Z,0.47
2024-03-12T09:24:16.718Z,0.50
2024-03-12T09:26:47.394Z,0.50
2024-03-12T09:29:21.883Z,0.40
2024-03-12T09:31:50.358Z,0.40
2024-03-12T09:34:20.728Z,0.30
2024-03-12T09:36:50.953Z,0.40
2024-03-12T09:39:21.313Z,0.40
2024-03-12T09:41:56.791Z,0.30
2024-03-12T09:44:30.115Z,0.50
2024-03-12T09:47:00.375Z,0.50
2024-03-12T09:49:31.143Z,0.60
2024-03-12T09:52:01.433Z,0.40
2024-03-12T09:54:32.142Z,0.60
2024-03-12T09:57:03.606Z,0.50
2024-03-12T09:59:37.042Z,0.40
2024-03-12T10:02:07.486Z,0.40
2024-03-12T10:04:38.216Z,0.70
2024-03-12T10:07:08.467Z,0.40
2024-03-12T10:09:42.329Z,0.57
2024-03-12T10:12:13.470Z,0.40
2024-03-12T10:14:48.662Z,0.30
2024-03-12T10:17:19.672Z,0.40
2024-03-12T10:19:52.097Z,0.30
2024-03-12T10:22:23.918Z,0.33
2024-03-12T10:24:54.223Z,0.50
2024-03-12T10:27:25.053Z,0.40
2024-03-12T10:29:58.766Z,0.67
2024-03-12T10:32:30.328Z,0.50
2024-03-12T10:35:00.596Z,0.50
2024-03-12T10:37:33.613Z,0.40
2024-03-12T10:40:20.367Z,0.40
2024-03-12T10:42:59.493Z,0.30
2024-03-12T10:45:33.076Z,0.50
2024-03-12T10:48:04.831Z,0.60
2024-03-12T10:50:35.796Z,0.43
2024-03-12T10:53:08.796Z,0.40
2024-03-12T10:55:39.655Z,0.40
2024-03-12T10:58:10.648Z,0.37
2024-03-12T11:00:43.887Z,0.50
2024-03-12T11:03:16.047Z,0.30
2024-03-12T11:05:46.554Z,0.43
2024-03-12T11:08:18.009Z,0.43
2024-03-12T11:10:49.575Z,0.40
2024-03-12T11:13:21.990Z,0.60
2024-03-12T11:15:55.087Z,0.30
2024-03-12T11:18:40.425Z,0.40
2024-03-12T11:21:15.118Z,0.30
2024-03-12T11:23:46.049Z,0.50
2024-03-12T11:26:17.955Z,0.30
2024-03-12T11:28:52.387Z,0.40
2024-03-12T11:31:26.487Z,0.50
2024-03-12T11:33:56.987Z,0.33
2024-03-12T11:36:34.095Z,0.40
2024-03-12T11:39:13.580Z,0.90
2024-03-12T11:42:16.454Z,0.50
2024-03-12T11:44:49.464Z,0.47
2024-03-12T11:47:36.108Z,0.47
2024-03-12T11:50:09.283Z,0.40
2024-03-12T11:52:40.444Z,0.40
2024-03-12T11:55:13.621Z,0.60
2024-03-12T11:57:46.116Z,0.30
2024-03-12T12:00:21.905Z,0.50
2024-03-12T12:02:54.761Z,0.47
2024-03-12T12:05:25.073Z,1.63
2024-03-12T12:07:55.891Z,0.50
2024-03-12T12:10:28.383Z,0.40
2024-03-12T12:12:59.087Z,0.30
2024-03-12T12:15:31.274Z,0.50
2024-03-12T12:18:13.200Z,0.63
2024-03-12T12:20:45.647Z,0.40
2024-03-12T12:23:16.547Z,0.50
2024-03-12T12:25:50.631Z,0.40
2024-03-12T12:28:21.138Z,0.40
2024-03-12T12:30:52.209Z,0.40
2024-03-12T12:33:26.144Z,0.40
2024-03-12T12:35:57.656Z,0.40
2024-03-12T12:38:28.909Z,0.47
2024-03-12T12:40:59.823Z,0.40
2024-03-12T12:43:30.349Z,0.40
2024-03-12T12:46:00.735Z,0.50
2024-03-12T12:48:34.909Z,0.47
2024-03-12T12:51:07.415Z,0.67
2024-03-12T12:53:37.736Z,0.50
2024-03-12T12:56:11.418Z,0.40
2024-03-12T12:58:43.504Z,0.50
2024-03-12T13:01:14.849Z,0.50
2024-03-12T13:03:48.530Z,0.50
2024-03-12T13:06:21.829Z,0.50
2024-03-12T13:08:53.643Z,0.57
2024-03-12T13:11:27.278Z,0.53
2024-03-12T13:13:57.729Z,0.40
2024-03-12T13:16:28.742Z,0.40
2024-03-12T13:19:02.272Z,0.40
2024-03-12T13:21:34.974Z,0.40
2024-03-12T13:24:05.196Z,0.50
2024-03-12T13:26:35.885Z,0.50
2024-03-12T13:29:06.870Z,0.40
2024-03-12T13:31:37.469Z,0.30
2024-03-12T13:34:10.341Z,0.40
2024-03-12T13:36:40.832Z,0.50
2024-03-12T13:39:14.041Z,0.70
2024-03-12T13:41:44.348Z,0.30
2024-03-12T13:44:14.713Z,0.40
2024-03-12T13:46:45.448Z,0.40
2024-03-12T13:49:19.281Z,0.43
2024-03-12T13:51:49.709Z,0.40
2024-03-12T13:54:19.953Z,0.40
2024-03-12T13:56:50.220Z,0.50
2024-03-12T13:59:20.566Z,0.60
2024-03-12T14:01:51.117Z,0.40
2024-03-12T14:04:24.920Z,0.40
2024-03-12T14:06:55.373Z,0.63
2024-03-12T14:09:26.608Z,0.30
2024-03-12T14:11:56.860Z,0.40
2024-03-12T14:14:27.355Z,0.40
2024-03-12T14:16:57.618Z,0.40
2024-03-12T14:19:30.526Z,0.70
2024-03-12T14:22:00.785Z,0.73
2024-03-12T14:24:31.344Z,0.47
2024-03-12T14:27:01.587Z,0.30
2024-03-12T14:29:31.856Z,0.50
2024-03-12T14:32:02.184Z,0.60
2024-03-12T14:34:35.111Z,1.07
2024-03-12T14:37:08.290Z,0.50
2024-03-12T14:39:38.652Z,0.57
2024-03-12T14:42:09.167Z,0.40
2024-03-12T14:44:39.431Z,0.50
2024-03-12T14:47:11.169Z,0.50
2024-03-12T14:49:44.057Z,0.50
2024-03-12T14:52:14.388Z,0.50
2024-03-12T14:54:44.668Z,0.50
2024-03-12T14:57:15.134Z,0.50
2024-03-12T14:59:46.241Z,0.47
2024-03-12T15:02:17.470Z,0.70
2024-03-12T15:04:50.626Z,0.47
2024-03-12T15:07:21.467Z,0.70
2024-03-12T15:09:52.366Z,0.80
2024-03-12T15:12:24.363Z,0.40
2024-03-12T15:14:56.809Z,0.70
2024-03-12T15:17:27.723Z,0.47
2024-03-12T15:20:00.623Z,0.77
2024-03-12T15:22:31.859Z,0.60
2024-03-12T15:25:02.591Z,0.40
2024-03-12T15:27:32.962Z,0.47
2024-03-12T15:30:03.472Z,0.60
2024-03-12T15:32:33.848Z,0.60
2024-03-12T15:35:07.988Z,0.60
2024-03-12T15:37:38.307Z,0.70
2024-03-12T15:40:10.593Z,0.53
2024-03-12T15:42:45.298Z,0.50
2024-03-12T15:45:17.102Z,0.80
2024-03-12T15:47:47.812Z,0.80
2024-03-12T15:50:20.781Z,0.70
2024-03-12T15:52:51.160Z,0.70
2024-03-12T15:55:21.445Z,1.00
2024-03-12T15:57:51.792Z,0.70
2024-03-12T16:00:23.957Z,0.77
2024-03-12T16:02:55.713Z,0.53
2024-03-12T16:05:30.412Z,0.80
2024-03-12T16:08:04.696Z,0.80
2024-03-12T16:10:34.898Z,0.50
2024-03-12T16:13:06.424Z,0.70
2024-03-12T16:15:37.121Z,0.77
2024-03-12T16:18:08.237Z,0.93
2024-03-12T16:20:41.085Z,0.50
2024-03-12T16:23:11.320Z,1.43
2024-03-12T16:25:41.636Z,1.70
2024-03-12T16:28:11.962Z,0.97
2024-03-12T16:30:42.274Z,1.30
2024-03-12T16:33:12.557Z,0.90
2024-03-12T16:35:45.793Z,0.70
2024-03-12T16:38:16.676Z,0.60
2024-03-12T16:40:48.233Z,1.20
2024-03-12T16:43:19.192Z,0.80
2024-03-12T16:45:50.528Z,0.70
2024-03-12T16:48:20.937Z,0.80
2024-03-12T16:50:54.638Z,0.83
2024-03-12T16:53:24.953Z,3.30
2024-03-12T16:55:55.793Z,0.97
2024-03-12T16:58:26.790Z,1.00
2024-03-12T17:00:59.771Z,0.87
2024-03-12T17:03:31.164Z,0.90
2024-03-12T17:06:05.852Z,0.70
2024-03-12T17:08:36.999Z,1.03
2024-03-12T17:11:08.075Z,0.77
2024-03-12T17:13:40.443Z,1.47
2024-03-12T17:16:11.839Z,0.83
2024-03-12T17:18:43.584Z,0.77
2024-03-12T17:21:17.677Z,0.90
2024-03-12T17:23:48.706Z,0.90
2024-03-12T17:26:20.833Z,1.00
2024-03-12T17:28:52.040Z,0.40
2024-03-12T17:31:23.088Z,0.80
2024-03-12T17:33:53.837Z,0.57
2024-03-12T17:36:27.276Z,0.80
2024-03-12T17:38:58.025Z,1.00
2024-03-12T17:41:28.814Z,0.77
2024-03-12T17:43:59.748Z,0.90
2024-03-12T17:46:31.170Z,0.90
2024-03-12T17:49:03.171Z,1.10
2024-03-12T17:51:37.032Z,1.10
2024-03-12T17:54:10.562Z,1.27
2024-03-12T17:56:47.154Z,1.00
2024-03-12T17:59:20.688Z,1.23
2024-03-12T18:01:53.475Z,1.60
2024-03-12T18:04:25.843Z,1.07
2024-03-12T18:07:01.112Z,0.90
2024-03-12T18:09:33.678Z,1.80
2024-03-12T18:12:05.627Z,2.37
2024-03-12T18:14:39.104Z,1.37
2024-03-12T18:17:10.378Z,0.90
2024-03-12T18:19:40.986Z,1.37
2024-03-12T18:22:14.864Z,1.50
2024-03-12T18:24:45.354Z,1.20
2024-03-12T18:27:16.137Z,0.77
2024-03-12T18:29:47.511Z,1.20
2024-03-12T18:32:18.675Z,0.60
2024-03-12T18:34:48.911Z,1.00
2024-03-12T18:37:21.906Z,1.30
2024-03-12T18:39:52.481Z,0.93
2024-03-12T18:42:23.523Z,1.53
2024-03-12T18:44:53.762Z,1.57
2024-03-12T18:47:26.687Z,0.70
2024-03-12T18:49:57.627Z,0.73
2024-03-12T18:52:31.533Z,0.50
2024-03-12T18:55:02.768Z,0.80
2024-03-12T18:57:33.873Z,1.13
2024-03-12T19:00:05.908Z,1.67
2024-03-12T19:02:37.947Z,0.73
2024-03-12T19:05:09.962Z,0.90
2024-03-12T19:07:43.617Z,0.97
2024-03-12T19:10:15.771Z,1.03
2024-03-12T19:12:47.752Z,0.70
2024-03-12T19:15:22.808Z,0.73
2024-03-12T19:17:54.283Z,1.33
2024-03-12T19:20:26.880Z,0.90
2024-03-12T19:23:00.703Z,1.37
2024-03-12T19:25:31.392Z,0.77
2024-03-12T19:28:04.624Z,1.00
2024-03-12T19:30:36.156Z,0.93
2024-03-12T19:33:07.940Z,1.03
2024-03-12T19:35:40.372Z,0.97
2024-03-12T19:38:14.652Z,0.87
2024-03-12T19:40:46.083Z,1.00
2024-03-12T19:43:17.193Z,0.70
2024-03-12T19:45:48.299Z,0.70
2024-03-12T19:48:22.133Z,0.93
2024-03-12T19:50:53.325Z,0.83
2024-03-12T19:53:26.291Z,0.70
2024-03-12T19:55:56.670Z,0.70
2024-03-12T19:58:27.271Z,1.00
2024-03-12T20:00:57.893Z,1.00
2024-03-12T20:03:28.557Z,0.70
2024-03-12T20:05:59.761Z,0.70
2024-03-12T20:08:33.614Z,0.80
2024-03-12T20:11:04.007Z,0.73
2024-03-12T20:13:36.931Z,0.80
2024-03-12T20:16:12.561Z,1.00
2024-03-12T20:18:44.637Z,0.97
2024-03-12T20:21:15.149Z,0.80
2024-03-12T20:23:48.382Z,0.83
2024-03-12T20:26:18.838Z,1.03
2024-03-12T20:28:50.004Z,1.20
2024-03-12T20:31:21.145Z,1.13
2024-03-12T20:33:52.454Z,1.23
2024-03-12T20:36:23.412Z,1.23
2024-03-12T20:38:56.438Z,1.63
2024-03-12T20:41:27.623Z,2.07
2024-03-12T20:43:58.804Z,3.07
2024-03-12T20:46:32.112Z,2.27
2024-03-12T20:49:02.609Z,3.10
2024-03-12T20:51:32.997Z,2.77
2024-03-12T20:54:05.980Z,2.83
2024-03-12T20:56:36.243Z,3.30
2024-03-12T20:59:06.605Z,2.83
2024-03-12T21:01:37.974Z,3.03
2024-03-12T21:04:09.250Z,2.73
2024-03-12T21:06:39.777Z,2.57
2024-03-12T21:09:23.086Z,2.83
2024-03-12T21:11:54.278Z,2.60
2024-03-12T21:14:25.644Z,2.60
2024-03-12T21:16:58.532Z,2.50
2024-03-12T21:19:29.192Z,2.93
2024-03-12T21:22:01.040Z,2.43
2024-03-12T21:24:37.450Z,2.53
2024-03-12T21:27:09.785Z,3.20
2024-03-12T21:29:40.209Z,2.50
2024-03-12T21:32:10.787Z,2.50
2024-03-12T21:34:41.013Z,3.97
2024-03-12T21:37:12.570Z,2.40
2024-03-12T21:39:48.138Z,2.97
2024-03-12T21:42:20.453Z,2.53
2024-03-12T21:44:53.029Z,3.37
2024-03-12T21:47:23.370Z,2.60
2024-03-12T21:49:53.649Z,3.70
2024-03-12T21:52:24.130Z,3.30
2024-03-12T21:54:57.123Z,3.10
2024-03-12T21:57:27.856Z,2.50
2024-03-12T22:00:02.351Z,3.10
2024-03-12T22:02:32.617Z,2.77
2024-03-12T22:05:07.184Z,3.50
2024-03-12T22:07:38.527Z,3.90
2024-03-12T22:10:13.815Z,4.00
2024-03-12T22:12:44.440Z,4.67
2024-03-12T22:15:16.616Z,3.50
2024-03-12T22:17:49.654Z,3.60
2024-03-12T22:20:21.349Z,3.60
2024-03-12T22:22:51.899Z,6.10
2024-03-12T22:25:25.254Z,4.50
2024-03-12T22:27:57.061Z,5.70
2024-03-12T22:30:29.535Z,6.73
2024-03-12T22:32:59.889Z,4.83
2024-03-12T22:35:30.318Z,4.60
2024-03-12T22:38:03.350Z,5.10
2024-03-12T22:40:37.143Z,4.50
2024-03-12T22:43:08.453Z,4.20
2024-03-12T22:45:39.255Z,3.80
2024-03-12T22:48:13.354Z,3.27
2024-03-12T22:50:44.202Z,3.93
2024-03-12T22:53:16.274Z,3.60
2024-03-12T22:55:49.597Z,3.13
2024-03-12T22:58:20.850Z,3.60
2024-03-12T23:00:52.666Z,3.97
2024-03-12T23:03:23.935Z,3.63
2024-03-12T23:05:57.007Z,3.30
2024-03-12T23:08:30.273Z,4.13
2024-03-12T23:11:03.333Z,3.80
2024-03-12T23:13:35.434Z,3.17
2024-03-12T23:16:08.258Z,3.30
2024-03-12T23:18:38.940Z,2.83
2024-03-12T23:21:11.632Z,2.80
2024-03-12T23:23:41.895Z,2.83
2024-03-12T23:26:18.267Z,3.20
2024-03-12T23:28:48.745Z,3.13
2024-03-12T23:31:20.135Z,2.70
2024-03-12T23:33:50.677Z,3.03
2024-03-12T23:36:23.419Z,2.80
2024-03-12T23:38:53.690Z,3.20
2024-03-12T23:41:26.962Z,3.03
2024-03-12T23:43:57.454Z,3.80
2024-03-12T23:46:27.842Z,2.93
2024-03-12T23:48:58.196Z,3.57
2024-03-12T23:51:30.005Z,3.30
2024-03-12T23:54:00.217Z,3.70
2024-03-12T23:56:36.783Z,3.43
2024-03-12T23:59:07.120Z,3.30
